sensor_id;sensor_type;location;lat;lon;timestamp;P1;durP1;ratioP1;P2;durP2;ratioP2
24485;SDS011;13449;49.374;8.584;2022-11-20T00:01:28;21.52;;;7.65;;
24485;SDS011;13449;49.374;8.584;2022-11-20T00:03:55;15.63;;;7.05;;
24485;SDS011;13449;49.374;8.584;2022-11-20T00:06:25;18.17;;;8.10;;
24485;SDS011;13449;49.374;8.584;2022-11-20T00:08:56;18.80;;;7.78;;
24485;SDS011;13449;49.374;8.584;2022-11-20T00:11:25;18.45;;;7.97;;
24485;SDS011;13449;49.374;8.584;2022-11-20T00:13:57;19.05;;;7.50;;
24485;SDS011;13449;49.374;8.584;2022-11-20T00:16:25;15.98;;;7.05;;
24485;SDS011;13449;49.374;8.584;2022-11-20T00:18:54;20.65;;;8.90;;
24485;SDS011;13449;49.374;8.584;2022-11-20T00:21:21;18.95;;;7.97;;
24485;SDS011;13449;49.374;8.584;2022-11-20T00:23:49;18.17;;;8.40;;
24485;SDS011;13449;49.374;8.584;2022-11-20T00:26:23;20.25;;;8.38;;
24485;SDS011;13449;49.374;8.584;2022-11-20T00:28:53;20.23;;;8.80;;
24485;SDS011;13449;49.374;8.584;2022-11-20T00:31:26;19.30;;;7.57;;
24485;SDS011;13449;49.374;8.584;2022-11-20T00:33:53;17.52;;;8.38;;
24485;SDS011;13449;49.374;8.584;2022-11-20T00:36:22;21.50;;;8.70;;
24485;SDS011;13449;49.374;8.584;2022-11-20T00:38:51;18.63;;;8.18;;
24485;SDS011;13449;49.374;8.584;2022-11-20T00:41:24;14.95;;;7.57;;
24485;SDS011;13449;49.374;8.584;2022-11-20T00:43:55;21.05;;;8.70;;
24485;SDS011;13449;49.374;8.584;2022-11-20T00:46:23;24.80;;;9.88;;
24485;SDS011;13449;49.374;8.584;2022-11-20T00:48:51;18.73;;;8.15;;
24485;SDS011;13449;49.374;8.584;2022-11-20T00:51:19;21.83;;;8.60;;
24485;SDS011;13449;49.374;8.584;2022-11-20T00:53:47;22.88;;;8.95;;
24485;SDS011;13449;49.374;8.584;2022-11-20T00:56:17;20.80;;;8.32;;
24485;SDS011;13449;49.374;8.584;2022-11-20T00:58:46;14.70;;;8.15;;
24485;SDS011;13449;49.374;8.584;2022-11-20T01:01:14;18.35;;;8.77;;
24485;SDS011;13449;49.374;8.584;2022-11-20T01:03:51;20.30;;;8.80;;
24485;SDS011;13449;49.374;8.584;2022-11-20T01:06:20;21.02;;;8.65;;
24485;SDS011;13449;49.374;8.584;2022-11-20T01:08:58;21.55;;;8.18;;
24485;SDS011;13449;49.374;8.584;2022-11-20T01:11:30;24.38;;;8.32;;
24485;SDS011;13449;49.374;8.584;2022-11-20T01:14:02;17.48;;;7.78;;
24485;SDS011;13449;49.374;8.584;2022-11-20T01:16:32;18.27;;;7.38;;
24485;SDS011;13449;49.374;8.584;2022-11-20T01:19:04;17.83;;;8.38;;
24485;SDS011;13449;49.374;8.584;2022-11-20T01:21:43;17.08;;;7.95;;
24485;SDS011;13449;49.374;8.584;2022-11-20T01:24:13;18.02;;;7.53;;
24485;SDS011;13449;49.374;8.584;2022-11-20T01:26:44;18.92;;;8.38;;
24485;SDS011;13449;49.374;8.584;2022-11-20T01:29:21;26.60;;;8.50;;
24485;SDS011;13449;49.374;8.584;2022-11-20T01:31:50;26.02;;;9.18;;
24485;SDS011;13449;49.374;8.584;2022-11-20T01:34:19;23.58;;;10.30;;
24485;SDS011;13449;49.374;8.584;2022-11-20T01:36:49;23.10;;;11.00;;
24485;SDS011;13449;49.374;8.584;2022-11-20T01:39:20;31.05;;;9.80;;
24485;SDS011;13449;49.374;8.584;2022-11-20T01:41:49;24.42;;;9.80;;
24485;SDS011;13449;49.374;8.584;2022-11-20T01:47:24;21.23;;;8.32;;
24485;SDS011;13449;49.374;8.584;2022-11-20T01:49:57;18.90;;;7.53;;
24485;SDS011;13449;49.374;8.584;2022-11-20T01:52:36;23.20;;;9.05;;
24485;SDS011;13449;49.374;8.584;2022-11-20T01:55:09;27.88;;;10.13;;
24485;SDS011;13449;49.374;8.584;2022-11-20T01:57:41;22.10;;;8.93;;
24485;SDS011;13449;49.374;8.584;2022-11-20T02:00:10;23.05;;;9.63;;
24485;SDS011;13449;49.374;8.584;2022-11-20T02:02:40;25.48;;;9.27;;
24485;SDS011;13449;49.374;8.584;2022-11-20T02:05:14;25.85;;;8.50;;
24485;SDS011;13449;49.374;8.584;2022-11-20T02:07:48;24.23;;;10.02;;
24485;SDS011;13449;49.374;8.584;2022-11-20T02:10:14;30.05;;;10.02;;
24485;SDS011;13449;49.374;8.584;2022-11-20T02:12:41;19.13;;;8.65;;
24485;SDS011;13449;49.374;8.584;2022-11-20T02:15:26;25.27;;;8.82;;
24485;SDS011;13449;49.374;8.584;2022-11-20T02:17:55;26.65;;;9.15;;
24485;SDS011;13449;49.374;8.584;2022-11-20T02:20:24;26.15;;;9.50;;
24485;SDS011;13449;49.374;8.584;2022-11-20T02:22:56;28.42;;;9.27;;
24485;SDS011;13449;49.374;8.584;2022-11-20T02:25:31;30.52;;;9.95;;
24485;SDS011;13449;49.374;8.584;2022-11-20T02:27:59;31.88;;;10.55;;
24485;SDS011;13449;49.374;8.584;2022-11-20T02:30:30;23.50;;;9.90;;
24485;SDS011;13449;49.374;8.584;2022-11-20T02:32:57;36.70;;;10.48;;
24485;SDS011;13449;49.374;8.584;2022-11-20T02:37:55;22.42;;;8.52;;
24485;SDS011;13449;49.374;8.584;2022-11-20T02:40:24;37.75;;;9.88;;
24485;SDS011;13449;49.374;8.584;2022-11-20T02:42:51;27.55;;;8.88;;
24485;SDS011;13449;49.374;8.584;2022-11-20T02:45:18;27.90;;;9.90;;
24485;SDS011;13449;49.374;8.584;2022-11-20T02:47:45;19.42;;;8.82;;
24485;SDS011;13449;49.374;8.584;2022-11-20T02:50:11;24.33;;;8.88;;
24485;SDS011;13449;49.374;8.584;2022-11-20T02:52:38;29.83;;;9.43;;
24485;SDS011;13449;49.374;8.584;2022-11-20T02:55:04;21.70;;;8.38;;
24485;SDS011;13449;49.374;8.584;2022-11-20T02:57:31;23.40;;;7.75;;
24485;SDS011;13449;49.374;8.584;2022-11-20T02:59:58;17.85;;;7.90;;
24485;SDS011;13449;49.374;8.584;2022-11-20T03:02:24;29.70;;;8.40;;
24485;SDS011;13449;49.374;8.584;2022-11-20T03:04:50;21.48;;;7.82;;
24485;SDS011;13449;49.374;8.584;2022-11-20T03:07:17;25.83;;;8.57;;
24485;SDS011;13449;49.374;8.584;2022-11-20T03:09:43;30.77;;;8.65;;
24485;SDS011;13449;49.374;8.584;2022-11-20T03:12:10;22.70;;;8.07;;
24485;SDS011;13449;49.374;8.584;2022-11-20T03:14:36;23.65;;;7.55;;
24485;SDS011;13449;49.374;8.584;2022-11-20T03:17:03;19.15;;;8.65;;
24485;SDS011;13449;49.374;8.584;2022-11-20T03:19:29;24.25;;;8.38;;
24485;SDS011;13449;49.374;8.584;2022-11-20T03:21:56;28.67;;;8.43;;
24485;SDS011;13449;49.374;8.584;2022-11-20T03:24:22;21.55;;;6.93;;
24485;SDS011;13449;49.374;8.584;2022-11-20T03:26:51;17.55;;;6.60;;
24485;SDS011;13449;49.374;8.584;2022-11-20T03:29:18;24.63;;;7.93;;
24485;SDS011;13449;49.374;8.584;2022-11-20T03:31:45;32.35;;;9.50;;
24485;SDS011;13449;49.374;8.584;2022-11-20T03:34:11;30.27;;;8.55;;
24485;SDS011;13449;49.374;8.584;2022-11-20T03:36:43;20.80;;;8.43;;
24485;SDS011;13449;49.374;8.584;2022-11-20T03:39:09;25.50;;;8.35;;
24485;SDS011;13449;49.374;8.584;2022-11-20T03:41:40;23.30;;;8.05;;
24485;SDS011;13449;49.374;8.584;2022-11-20T03:44:08;23.42;;;8.65;;
24485;SDS011;13449;49.374;8.584;2022-11-20T03:46:35;30.67;;;8.57;;
24485;SDS011;13449;49.374;8.584;2022-11-20T03:49:03;23.42;;;8.48;;
24485;SDS011;13449;49.374;8.584;2022-11-20T03:51:31;22.70;;;9.02;;
24485;SDS011;13449;49.374;8.584;2022-11-20T03:54:00;31.80;;;9.02;;
24485;SDS011;13449;49.374;8.584;2022-11-20T03:56:29;21.25;;;8.68;;
24485;SDS011;13449;49.374;8.584;2022-11-20T03:58:57;20.33;;;8.10;;
24485;SDS011;13449;49.374;8.584;2022-11-20T04:01:25;19.33;;;7.55;;
24485;SDS011;13449;49.374;8.584;2022-11-20T04:03:55;35.80;;;9.90;;
24485;SDS011;13449;49.374;8.584;2022-11-20T04:06:23;19.25;;;8.55;;
24485;SDS011;13449;49.374;8.584;2022-11-20T04:08:53;26.33;;;8.75;;
24485;SDS011;13449;49.374;8.584;2022-11-20T04:11:21;25.45;;;8.15;;
24485;SDS011;13449;49.374;8.584;2022-11-20T04:13:51;26.58;;;8.90;;
24485;SDS011;13449;49.374;8.584;2022-11-20T04:16:20;23.85;;;8.75;;
24485;SDS011;13449;49.374;8.584;2022-11-20T04:18:51;24.98;;;9.20;;
24485;SDS011;13449;49.374;8.584;2022-11-20T04:21:19;17.75;;;7.45;;
24485;SDS011;13449;49.374;8.584;2022-11-20T04:23:45;24.52;;;8.70;;
24485;SDS011;13449;49.374;8.584;2022-11-20T04:26:12;30.85;;;8.35;;
24485;SDS011;13449;49.374;8.584;2022-11-20T04:28:41;18.75;;;8.50;;
24485;SDS011;13449;49.374;8.584;2022-11-20T04:31:08;18.33;;;7.50;;
24485;SDS011;13449;49.374;8.584;2022-11-20T04:33:40;21.83;;;9.13;;
24485;SDS011;13449;49.374;8.584;2022-11-20T04:36:09;21.30;;;7.55;;
24485;SDS011;13449;49.374;8.584;2022-11-20T04:38:38;19.15;;;7.55;;
24485;SDS011;13449;49.374;8.584;2022-11-20T04:41:06;25.63;;;9.20;;
24485;SDS011;13449;49.374;8.584;2022-11-20T04:43:38;19.25;;;6.80;;
24485;SDS011;13449;49.374;8.584;2022-11-20T04:46:07;15.82;;;6.20;;
24485;SDS011;13449;49.374;8.584;2022-11-20T04:48:34;19.38;;;7.85;;
24485;SDS011;13449;49.374;8.584;2022-11-20T04:51:02;14.13;;;6.20;;
24485;SDS011;13449;49.374;8.584;2022-11-20T04:53:31;23.90;;;8.75;;
24485;SDS011;13449;49.374;8.584;2022-11-20T04:56:05;32.50;;;10.10;;
24485;SDS011;13449;49.374;8.584;2022-11-20T04:58:33;22.17;;;9.98;;
24485;SDS011;13449;49.374;8.584;2022-11-20T05:01:05;36.25;;;10.13;;
24485;SDS011;13449;49.374;8.584;2022-11-20T05:03:32;28.35;;;10.23;;
24485;SDS011;13449;49.374;8.584;2022-11-20T05:06:03;35.67;;;10.80;;
24485;SDS011;13449;49.374;8.584;2022-11-20T05:08:31;38.63;;;12.05;;
24485;SDS011;13449;49.374;8.584;2022-11-20T05:11:02;33.88;;;11.27;;
24485;SDS011;13449;49.374;8.584;2022-11-20T05:13:33;31.42;;;10.77;;
24485;SDS011;13449;49.374;8.584;2022-11-20T05:16:01;27.45;;;10.15;;
24485;SDS011;13449;49.374;8.584;2022-11-20T05:18:29;31.05;;;10.63;;
24485;SDS011;13449;49.374;8.584;2022-11-20T05:20:56;36.03;;;11.02;;
24485;SDS011;13449;49.374;8.584;2022-11-20T05:23:23;36.95;;;11.43;;
24485;SDS011;13449;49.374;8.584;2022-11-20T05:25:53;31.25;;;10.80;;
24485;SDS011;13449;49.374;8.584;2022-11-20T05:28:26;38.13;;;9.98;;
24485;SDS011;13449;49.374;8.584;2022-11-20T05:30:53;32.38;;;10.77;;
24485;SDS011;13449;49.374;8.584;2022-11-20T05:33:20;31.38;;;10.43;;
24485;SDS011;13449;49.374;8.584;2022-11-20T05:35:48;36.05;;;10.75;;
24485;SDS011;13449;49.374;8.584;2022-11-20T05:38:14;27.63;;;9.88;;
24485;SDS011;13449;49.374;8.584;2022-11-20T05:40:41;29.92;;;10.05;;
24485;SDS011;13449;49.374;8.584;2022-11-20T05:43:10;33.03;;;10.88;;
24485;SDS011;13449;49.374;8.584;2022-11-20T05:45:39;37.20;;;11.60;;
24485;SDS011;13449;49.374;8.584;2022-11-20T05:48:05;48.60;;;10.82;;
24485;SDS011;13449;49.374;8.584;2022-11-20T05:50:32;37.38;;;11.27;;
24485;SDS011;13449;49.374;8.584;2022-11-20T05:52:59;23.20;;;7.63;;
24485;SDS011;13449;49.374;8.584;2022-11-20T05:55:26;30.67;;;10.88;;
24485;SDS011;13449;49.374;8.584;2022-11-20T05:57:53;30.35;;;10.73;;
24485;SDS011;13449;49.374;8.584;2022-11-20T06:00:25;28.23;;;9.13;;
24485;SDS011;13449;49.374;8.584;2022-11-20T06:02:54;31.52;;;9.93;;
24485;SDS011;13449;49.374;8.584;2022-11-20T06:05:20;32.35;;;9.50;;
24485;SDS011;13449;49.374;8.584;2022-11-20T06:07:46;26.23;;;9.63;;
24485;SDS011;13449;49.374;8.584;2022-11-20T06:10:13;33.25;;;10.05;;
24485;SDS011;13449;49.374;8.584;2022-11-20T06:12:39;24.02;;;9.48;;
24485;SDS011;13449;49.374;8.584;2022-11-20T06:15:08;35.20;;;10.88;;
24485;SDS011;13449;49.374;8.584;2022-11-20T06:17:37;28.77;;;9.68;;
24485;SDS011;13449;49.374;8.584;2022-11-20T06:20:04;27.13;;;10.55;;
24485;SDS011;13449;49.374;8.584;2022-11-20T06:22:31;29.48;;;10.20;;
24485;SDS011;13449;49.374;8.584;2022-11-20T06:24:58;30.23;;;10.50;;
24485;SDS011;13449;49.374;8.584;2022-11-20T06:27:24;28.75;;;9.70;;
24485;SDS011;13449;49.374;8.584;2022-11-20T06:29:51;26.70;;;9.90;;
24485;SDS011;13449;49.374;8.584;2022-11-20T06:32:17;33.75;;;9.73;;
24485;SDS011;13449;49.374;8.584;2022-11-20T06:34:44;31.92;;;9.45;;
24485;SDS011;13449;49.374;8.584;2022-11-20T06:37:10;27.38;;;8.40;;
24485;SDS011;13449;49.374;8.584;2022-11-20T06:39:36;24.70;;;9.10;;
24485;SDS011;13449;49.374;8.584;2022-11-20T06:42:03;21.65;;;7.93;;
24485;SDS011;13449;49.374;8.584;2022-11-20T06:44:33;24.52;;;8.95;;
24485;SDS011;13449;49.374;8.584;2022-11-20T06:46:59;32.05;;;10.50;;
24485;SDS011;13449;49.374;8.584;2022-11-20T06:49:26;26.15;;;10.05;;
24485;SDS011;13449;49.374;8.584;2022-11-20T06:51:52;32.13;;;10.50;;
24485;SDS011;13449;49.374;8.584;2022-11-20T06:54:18;34.00;;;10.65;;
24485;SDS011;13449;49.374;8.584;2022-11-20T06:56:47;27.95;;;9.70;;
24485;SDS011;13449;49.374;8.584;2022-11-20T06:59:14;22.55;;;8.80;;
24485;SDS011;13449;49.374;8.584;2022-11-20T07:01:41;31.90;;;12.30;;
24485;SDS011;13449;49.374;8.584;2022-11-20T07:04:07;29.85;;;9.65;;
24485;SDS011;13449;49.374;8.584;2022-11-20T07:06:34;36.67;;;9.85;;
24485;SDS011;13449;49.374;8.584;2022-11-20T07:09:00;40.22;;;10.20;;
24485;SDS011;13449;49.374;8.584;2022-11-20T07:11:29;27.25;;;10.18;;
24485;SDS011;13449;49.374;8.584;2022-11-20T07:13:56;22.08;;;9.02;;
24485;SDS011;13449;49.374;8.584;2022-11-20T07:16:23;37.95;;;10.52;;
24485;SDS011;13449;49.374;8.584;2022-11-20T07:18:52;36.72;;;10.55;;
24485;SDS011;13449;49.374;8.584;2022-11-20T07:21:18;35.78;;;10.70;;
24485;SDS011;13449;49.374;8.584;2022-11-20T07:23:45;30.65;;;10.27;;
24485;SDS011;13449;49.374;8.584;2022-11-20T07:26:11;31.73;;;11.07;;
24485;SDS011;13449;49.374;8.584;2022-11-20T07:28:37;35.60;;;9.93;;
24485;SDS011;13449;49.374;8.584;2022-11-20T07:31:05;24.42;;;9.30;;
24485;SDS011;13449;49.374;8.584;2022-11-20T07:33:35;36.38;;;10.35;;
24485;SDS011;13449;49.374;8.584;2022-11-20T07:36:06;25.63;;;9.02;;
24485;SDS011;13449;49.374;8.584;2022-11-20T07:38:33;30.25;;;10.30;;
24485;SDS011;13449;49.374;8.584;2022-11-20T07:40:59;31.17;;;9.55;;
24485;SDS011;13449;49.374;8.584;2022-11-20T07:43:29;34.13;;;11.20;;
24485;SDS011;13449;49.374;8.584;2022-11-20T07:45:58;26.17;;;10.27;;
24485;SDS011;13449;49.374;8.584;2022-11-20T07:48:25;33.03;;;11.13;;
24485;SDS011;13449;49.374;8.584;2022-11-20T07:50:55;36.08;;;12.82;;
24485;SDS011;13449;49.374;8.584;2022-11-20T07:53:23;30.83;;;9.95;;
24485;SDS011;13449;49.374;8.584;2022-11-20T07:55:50;25.35;;;11.02;;
24485;SDS011;13449;49.374;8.584;2022-11-20T07:58:18;25.50;;;9.65;;
24485;SDS011;13449;49.374;8.584;2022-11-20T08:00:46;20.65;;;10.13;;
24485;SDS011;13449;49.374;8.584;2022-11-20T08:03:15;28.60;;;10.25;;
24485;SDS011;13449;49.374;8.584;2022-11-20T08:05:49;19.52;;;8.73;;
24485;SDS011;13449;49.374;8.584;2022-11-20T08:08:16;27.02;;;9.30;;
24485;SDS011;13449;49.374;8.584;2022-11-20T08:10:45;21.23;;;8.55;;
24485;SDS011;13449;49.374;8.584;2022-11-20T08:13:12;24.40;;;9.55;;
24485;SDS011;13449;49.374;8.584;2022-11-20T08:15:57;14.93;;;7.65;;
24485;SDS011;13449;49.374;8.584;2022-11-20T08:18:23;21.75;;;8.15;;
24485;SDS011;13449;49.374;8.584;2022-11-20T08:21:01;16.13;;;8.40;;
24485;SDS011;13449;49.374;8.584;2022-11-20T08:23:28;16.02;;;7.97;;
24485;SDS011;13449;49.374;8.584;2022-11-20T08:25:54;18.58;;;8.25;;
24485;SDS011;13449;49.374;8.584;2022-11-20T08:28:23;21.48;;;7.40;;
24485;SDS011;13449;49.374;8.584;2022-11-20T08:30:57;24.13;;;8.20;;
24485;SDS011;13449;49.374;8.584;2022-11-20T08:35:51;22.15;;;7.57;;
24485;SDS011;13449;49.374;8.584;2022-11-20T08:38:17;17.85;;;7.57;;
24485;SDS011;13449;49.374;8.584;2022-11-20T08:40:44;21.23;;;8.60;;
24485;SDS011;13449;49.374;8.584;2022-11-20T08:43:30;12.88;;;6.55;;
24485;SDS011;13449;49.374;8.584;2022-11-20T08:45:59;15.38;;;7.80;;
24485;SDS011;13449;49.374;8.584;2022-11-20T08:48:26;16.98;;;6.40;;
24485;SDS011;13449;49.374;8.584;2022-11-20T08:50:52;20.50;;;8.00;;
24485;SDS011;13449;49.374;8.584;2022-11-20T08:53:18;15.63;;;8.23;;
24485;SDS011;13449;49.374;8.584;2022-11-20T08:55:45;17.08;;;7.93;;
24485;SDS011;13449;49.374;8.584;2022-11-20T08:58:11;23.55;;;8.48;;
24485;SDS011;13449;49.374;8.584;2022-11-20T09:00:40;15.00;;;7.13;;
24485;SDS011;13449;49.374;8.584;2022-11-20T09:03:09;17.17;;;7.70;;
24485;SDS011;13449;49.374;8.584;2022-11-20T09:05:38;17.55;;;7.97;;
24485;SDS011;13449;49.374;8.584;2022-11-20T09:08:04;17.95;;;7.47;;
24485;SDS011;13449;49.374;8.584;2022-11-20T09:10:33;19.35;;;7.97;;
24485;SDS011;13449;49.374;8.584;2022-11-20T09:13:02;25.08;;;9.20;;
24485;SDS011;13449;49.374;8.584;2022-11-20T09:15:30;14.13;;;7.30;;
24485;SDS011;13449;49.374;8.584;2022-11-20T09:18:07;12.48;;;6.68;;
24485;SDS011;13449;49.374;8.584;2022-11-20T09:20:33;12.90;;;7.03;;
24485;SDS011;13449;49.374;8.584;2022-11-20T09:23:02;13.73;;;5.95;;
24485;SDS011;13449;49.374;8.584;2022-11-20T09:25:29;17.10;;;6.80;;
24485;SDS011;13449;49.374;8.584;2022-11-20T09:27:55;8.80;;;5.82;;
24485;SDS011;13449;49.374;8.584;2022-11-20T09:30:25;10.32;;;6.85;;
24485;SDS011;13449;49.374;8.584;2022-11-20T09:32:52;10.25;;;6.40;;
24485;SDS011;13449;49.374;8.584;2022-11-20T09:35:19;9.38;;;5.72;;
24485;SDS011;13449;49.374;8.584;2022-11-20T09:37:48;12.18;;;6.15;;
24485;SDS011;13449;49.374;8.584;2022-11-20T09:40:19;13.43;;;6.30;;
24485;SDS011;13449;49.374;8.584;2022-11-20T09:42:57;19.92;;;6.47;;
24485;SDS011;13449;49.374;8.584;2022-11-20T09:56:40;10.93;;;6.75;;
24485;SDS011;13449;49.374;8.584;2022-11-20T10:02:03;8.60;;;5.75;;
24485;SDS011;13449;49.374;8.584;2022-11-20T10:05:34;11.10;;;6.60;;
24485;SDS011;13449;49.374;8.584;2022-11-20T10:10:46;18.25;;;7.40;;
24485;SDS011;13449;49.374;8.584;2022-11-20T10:13:42;8.43;;;5.25;;
24485;SDS011;13449;49.374;8.584;2022-11-20T10:19:49;12.50;;;4.90;;
24485;SDS011;13449;49.374;8.584;2022-11-20T10:26:12;10.05;;;5.10;;
24485;SDS011;13449;49.374;8.584;2022-11-20T10:28:32;6.55;;;4.30;;
24485;SDS011;13449;49.374;8.584;2022-11-20T10:31:33;16.35;;;5.93;;
24485;SDS011;13449;49.374;8.584;2022-11-20T10:34:06;5.82;;;4.43;;
24485;SDS011;13449;49.374;8.584;2022-11-20T10:37:02;8.38;;;6.03;;
24485;SDS011;13449;49.374;8.584;2022-11-20T10:39:39;10.70;;;6.15;;
24485;SDS011;13449;49.374;8.584;2022-11-20T10:42:15;16.00;;;5.53;;
24485;SDS011;13449;49.374;8.584;2022-11-20T10:44:49;9.55;;;6.30;;
24485;SDS011;13449;49.374;8.584;2022-11-20T10:47:31;8.77;;;4.60;;
24485;SDS011;13449;49.374;8.584;2022-11-20T10:50:04;6.63;;;4.90;;
24485;SDS011;13449;49.374;8.584;2022-11-20T10:52:49;8.65;;;4.97;;
24485;SDS011;13449;49.374;8.584;2022-11-20T10:58:25;12.95;;;5.55;;
24485;SDS011;13449;49.374;8.584;2022-11-20T11:01:05;6.43;;;4.03;;
24485;SDS011;13449;49.374;8.584;2022-11-20T11:03:39;13.35;;;4.95;;
24485;SDS011;13449;49.374;8.584;2022-11-20T11:08:58;9.80;;;4.38;;
24485;SDS011;13449;49.374;8.584;2022-11-20T11:11:30;7.00;;;3.13;;
24485;SDS011;13449;49.374;8.584;2022-11-20T11:14:10;3.42;;;2.88;;
24485;SDS011;13449;49.374;8.584;2022-11-20T11:16:56;3.17;;;2.60;;
24485;SDS011;13449;49.374;8.584;2022-11-20T11:19:25;3.17;;;2.53;;
24485;SDS011;13449;49.374;8.584;2022-11-20T11:21:53;7.47;;;4.75;;
24485;SDS011;13449;49.374;8.584;2022-11-20T11:24:25;11.82;;;4.45;;
24485;SDS011;13449;49.374;8.584;2022-11-20T11:27:12;10.38;;;4.68;;
24485;SDS011;13449;49.374;8.584;2022-11-20T11:29:45;10.48;;;4.30;;
24485;SDS011;13449;49.374;8.584;2022-11-20T11:32:14;7.57;;;2.83;;
24485;SDS011;13449;49.374;8.584;2022-11-20T11:34:43;13.20;;;7.60;;
24485;SDS011;13449;49.374;8.584;2022-11-20T11:37:13;17.20;;;9.95;;
24485;SDS011;13449;49.374;8.584;2022-11-20T11:39:47;21.67;;;9.65;;
24485;SDS011;13449;49.374;8.584;2022-11-20T11:42:31;19.77;;;10.45;;
24485;SDS011;13449;49.374;8.584;2022-11-20T11:44:58;14.68;;;7.85;;
24485;SDS011;13449;49.374;8.584;2022-11-20T11:47:34;16.02;;;7.93;;
24485;SDS011;13449;49.374;8.584;2022-11-20T11:55:20;20.25;;;8.95;;
24485;SDS011;13449;49.374;8.584;2022-11-20T11:57:59;16.42;;;7.93;;
24485;SDS011;13449;49.374;8.584;2022-11-20T12:00:34;14.35;;;7.60;;
24485;SDS011;13449;49.374;8.584;2022-11-20T12:05:39;14.55;;;7.93;;
24485;SDS011;13449;49.374;8.584;2022-11-20T12:08:12;21.90;;;8.45;;
24485;SDS011;13449;49.374;8.584;2022-11-20T12:10:53;18.10;;;8.02;;
24485;SDS011;13449;49.374;8.584;2022-11-20T12:15:56;12.88;;;5.85;;
24485;SDS011;13449;49.374;8.584;2022-11-20T12:18:22;11.18;;;5.90;;
24485;SDS011;13449;49.374;8.584;2022-11-20T12:23:48;7.72;;;3.70;;
24485;SDS011;13449;49.374;8.584;2022-11-20T12:29:49;13.60;;;6.05;;
24485;SDS011;13449;49.374;8.584;2022-11-20T12:32:41;6.00;;;1.90;;
24485;SDS011;13449;49.374;8.584;2022-11-20T12:43:23;5.45;;;1.80;;
24485;SDS011;13449;49.374;8.584;2022-11-20T12:46:26;5.80;;;1.50;;
24485;SDS011;13449;49.374;8.584;2022-11-20T13:06:13;7.68;;;2.58;;
24485;SDS011;13449;49.374;8.584;2022-11-20T13:08:45;5.32;;;1.77;;
24485;SDS011;13449;49.374;8.584;2022-11-20T13:16:48;2.92;;;1.60;;
24485;SDS011;13449;49.374;8.584;2022-11-20T13:19:20;5.20;;;1.27;;
24485;SDS011;13449;49.374;8.584;2022-11-20T13:21:47;9.20;;;1.27;;
24485;SDS011;13449;49.374;8.584;2022-11-20T13:24:21;5.68;;;1.88;;
24485;SDS011;13449;49.374;8.584;2022-11-20T13:29:34;3.22;;;1.67;;
24485;SDS011;13449;49.374;8.584;2022-11-20T13:35:03;4.05;;;1.65;;
24485;SDS011;13449;49.374;8.584;2022-11-20T13:37:35;5.82;;;1.33;;
24485;SDS011;13449;49.374;8.584;2022-11-20T13:42:43;3.67;;;0.80;;
24485;SDS011;13449;49.374;8.584;2022-11-20T13:45:31;4.53;;;0.93;;
24485;SDS011;13449;49.374;8.584;2022-11-20T13:48:16;0.60;;;0.40;;
24485;SDS011;13449;49.374;8.584;2022-11-20T13:53:57;8.48;;;0.88;;
24485;SDS011;13449;49.374;8.584;2022-11-20T14:02:10;3.35;;;0.98;;
24485;SDS011;13449;49.374;8.584;2022-11-20T14:04:42;2.53;;;0.70;;
24485;SDS011;13449;49.374;8.584;2022-11-20T14:07:11;5.00;;;1.00;;
24485;SDS011;13449;49.374;8.584;2022-11-20T14:09:49;2.03;;;0.60;;
24485;SDS011;13449;49.374;8.584;2022-11-20T14:12:21;3.58;;;0.68;;
24485;SDS011;13449;49.374;8.584;2022-11-20T14:14:50;1.10;;;0.30;;
24485;SDS011;13449;49.374;8.584;2022-11-20T14:17:19;5.07;;;1.10;;
24485;SDS011;13449;49.374;8.584;2022-11-20T14:19:46;5.78;;;1.42;;
24485;SDS011;13449;49.374;8.584;2022-11-20T14:22:21;8.02;;;1.58;;
24485;SDS011;13449;49.374;8.584;2022-11-20T14:27:34;3.47;;;0.93;;
24485;SDS011;13449;49.374;8.584;2022-11-20T14:30:03;6.30;;;1.70;;
24485;SDS011;13449;49.374;8.584;2022-11-20T14:32:33;1.25;;;0.93;;
24485;SDS011;13449;49.374;8.584;2022-11-20T14:35:06;5.05;;;0.77;;
24485;SDS011;13449;49.374;8.584;2022-11-20T14:37:37;3.13;;;1.60;;
24485;SDS011;13449;49.374;8.584;2022-11-20T14:40:21;8.57;;;2.67;;
24485;SDS011;13449;49.374;8.584;2022-11-20T14:43:01;8.13;;;2.03;;
24485;SDS011;13449;49.374;8.584;2022-11-20T14:45:45;8.52;;;3.20;;
24485;SDS011;13449;49.374;8.584;2022-11-20T14:48:18;5.95;;;2.33;;
24485;SDS011;13449;49.374;8.584;2022-11-20T14:50:45;4.05;;;1.75;;
24485;SDS011;13449;49.374;8.584;2022-11-20T14:53:12;3.83;;;1.58;;
24485;SDS011;13449;49.374;8.584;2022-11-20T14:55:54;6.40;;;1.65;;
24485;SDS011;13449;49.374;8.584;2022-11-20T14:58:33;8.48;;;1.92;;
24485;SDS011;13449;49.374;8.584;2022-11-20T15:01:01;8.38;;;2.75;;
24485;SDS011;13449;49.374;8.584;2022-11-20T15:03:32;5.17;;;2.23;;
24485;SDS011;13449;49.374;8.584;2022-11-20T15:06:07;5.18;;;2.63;;
24485;SDS011;13449;49.374;8.584;2022-11-20T15:08:36;7.03;;;1.70;;
24485;SDS011;13449;49.374;8.584;2022-11-20T15:11:14;3.55;;;1.90;;
24485;SDS011;13449;49.374;8.584;2022-11-20T15:13:44;11.45;;;1.58;;
24485;SDS011;13449;49.374;8.584;2022-11-20T15:16:13;9.45;;;1.90;;
24485;SDS011;13449;49.374;8.584;2022-11-20T15:18:47;2.38;;;1.80;;
24485;SDS011;13449;49.374;8.584;2022-11-20T15:21:14;2.22;;;1.50;;
24485;SDS011;13449;49.374;8.584;2022-11-20T15:23:42;2.40;;;1.70;;
24485;SDS011;13449;49.374;8.584;2022-11-20T15:26:12;8.18;;;2.05;;
24485;SDS011;13449;49.374;8.584;2022-11-20T15:28:47;5.07;;;1.52;;
24485;SDS011;13449;49.374;8.584;2022-11-20T15:31:18;3.35;;;2.60;;
24485;SDS011;13449;49.374;8.584;2022-11-20T15:33:46;2.15;;;1.60;;
24485;SDS011;13449;49.374;8.584;2022-11-20T15:36:13;1.88;;;1.27;;
24485;SDS011;13449;49.374;8.584;2022-11-20T15:38:40;4.43;;;1.20;;
24485;SDS011;13449;49.374;8.584;2022-11-20T15:41:09;2.60;;;1.30;;
24485;SDS011;13449;49.374;8.584;2022-11-20T15:43:40;2.97;;;1.23;;
24485;SDS011;13449;49.374;8.584;2022-11-20T15:46:11;1.52;;;1.17;;
24485;SDS011;13449;49.374;8.584;2022-11-20T15:48:41;5.43;;;1.40;;
24485;SDS011;13449;49.374;8.584;2022-11-20T15:51:30;4.32;;;1.70;;
24485;SDS011;13449;49.374;8.584;2022-11-20T15:53:59;18.02;;;1.92;;
24485;SDS011;13449;49.374;8.584;2022-11-20T15:56:27;4.07;;;1.42;;
24485;SDS011;13449;49.374;8.584;2022-11-20T15:58:53;3.72;;;1.23;;
24485;SDS011;13449;49.374;8.584;2022-11-20T16:01:22;6.95;;;1.65;;
24485;SDS011;13449;49.374;8.584;2022-11-20T16:03:49;3.63;;;2.83;;
24485;SDS011;13449;49.374;8.584;2022-11-20T16:06:15;9.43;;;3.03;;
24485;SDS011;13449;49.374;8.584;2022-11-20T16:08:44;15.30;;;4.65;;
24485;SDS011;13449;49.374;8.584;2022-11-20T16:11:15;5.22;;;3.53;;
24485;SDS011;13449;49.374;8.584;2022-11-20T16:13:43;10.00;;;2.93;;
24485;SDS011;13449;49.374;8.584;2022-11-20T16:16:29;5.30;;;2.92;;
24485;SDS011;13449;49.374;8.584;2022-11-20T16:18:59;6.70;;;3.53;;
24485;SDS011;13449;49.374;8.584;2022-11-20T16:21:28;4.60;;;3.00;;
24485;SDS011;13449;49.374;8.584;2022-11-20T16:23:58;15.85;;;6.50;;
24485;SDS011;13449;49.374;8.584;2022-11-20T16:26:29;14.57;;;5.13;;
24485;SDS011;13449;49.374;8.584;2022-11-20T16:28:57;5.00;;;2.78;;
24485;SDS011;13449;49.374;8.584;2022-11-20T16:31:25;11.23;;;4.82;;
24485;SDS011;13449;49.374;8.584;2022-11-20T16:33:52;13.23;;;4.40;;
24485;SDS011;13449;49.374;8.584;2022-11-20T16:36:20;17.20;;;6.78;;
24485;SDS011;13449;49.374;8.584;2022-11-20T16:38:51;29.48;;;11.35;;
24485;SDS011;13449;49.374;8.584;2022-11-20T16:41:19;21.45;;;6.93;;